KUIL/UIL METAR and TAF weather

Enter ICAO airport designator
Station Type Date Time Source
KUIL METAR 2022/01/29 01:53 UTC NOAA

KUIL 290153Z AUTO 00000KT 10SM CLR 03/02 A3027 RMK AO2 SLP252 T00330022


Station Type Date Time Source
KUIL Decoded METAR 2022/01/29 01:53 UTC NOAA

QUILLAYUTE STATE AIRPORT, WA, United States (KUIL) 47-56N 124-34W 54M
Jan 28, 2022 - 08:53 PM EST / 2022.01.29 0153 UTC
Wind: Calm:0
Visibility: 10 mile(s):0
Sky conditions: clear
Temperature: 37.9 F (3.3 C)
Dew Point: 36.0 F (2.2 C)
Relative Humidity: 92%
Pressure (altimeter): 30.27 in. Hg (1025 hPa)
ob: KUIL 290153Z AUTO 00000KT 10SM CLR 03/02 A3027 RMK AO2 SLP252 T00330022
cycle: 2

Station Type Date Time Source
KUIL TAF UTC NOAA

Error!

Example: see airport list